Time,TemperatureF,DewpointF,PressureIn,WindDirection,WindDirectionDegrees,WindSpeedMPH,WindSpeedGustMPH,Humidity,HourlyPrecipIn,Conditions,Clouds,dailyrainin,SoftwareType,DateUTC
2013-08-23 00:08:00,74.6,73.7,29.99,North,5,0.0,0.0,97,0.00,,,0.00,Wunderground v.1.15,2013-08-23 05:08:00,
2013-08-23 00:13:00,74.6,73.7,29.99,North,5,0.0,0.0,97,0.00,,,0.00,Wunderground v.1.15,2013-08-23 05:13:00,
2013-08-23 00:18:00,74.6,73.7,29.99,North,5,0.0,0.0,97,0.00,,,0.00,Wunderground v.1.15,2013-08-23 05:18:00,
2013-08-23 00:23:00,74.6,73.7,29.99,North,5,0.0,0.0,97,0.00,,,0.00,Wunderground v.1.15,2013-08-23 05:23:00,
2013-08-23 00:28:00,74.5,73.6,29.99,North,5,0.0,0.0,97,0.00,,,0.00,Wunderground v.1.15,2013-08-23 05:28:00,
2013-08-23 00:33:00,74.5,73.6,29.99,North,5,0.0,0.0,97,0.00,,,0.00,Wunderground v.1.15,2013-08-23 05:33:00,
2013-08-23 00:43:00,74.5,73.6,29.99,North,5,0.0,0.0,97,0.00,,,0.00,Wunderground v.1.15,2013-08-23 05:43:00,
2013-08-23 00:48:00,74.4,73.5,29.99,North,5,0.0,0.0,97,0.00,,,0.00,Wunderground v.1.15,2013-08-23 05:48:00,
2013-08-23 00:53:00,74.4,73.5,29.99,North,5,0.0,0.0,97,0.00,,,0.00,Wunderground v.1.15,2013-08-23 05:53:00,
2013-08-23 00:59:00,74.4,73.5,29.99,North,5,0.0,0.0,97,0.00,,,0.00,Wunderground v.1.15,2013-08-23 05:59:00,
2013-08-23 01:08:00,74.4,73.5,29.99,North,5,0.0,0.0,97,0.00,,,0.00,Wunderground v.1.15,2013-08-23 06:08:00,
2013-08-23 01:13:00,74.4,73.5,29.99,North,5,0.0,0.0,97,0.00,,,0.00,Wunderground v.1.15,2013-08-23 06:13:00,
2013-08-23 01:19:00,74.3,73.4,29.98,North,5,0.0,0.0,97,0.00,,,0.00,Wunderground v.1.15,2013-08-23 06:19:00,
2013-08-23 01:28:00,74.2,73.3,29.98,North,5,0.0,0.0,97,0.00,,,0.00,Wunderground v.1.15,2013-08-23 06:28:00,
2013-08-23 01:33:00,74.2,73.3,29.97,North,5,0.0,0.0,97,0.00,,,0.00,Wunderground v.1.15,2013-08-23 06:33:00,
2013-08-23 01:38:00,74.2,73.3,29.97,North,5,0.0,0.0,97,0.00,,,0.00,Wunderground v.1.15,2013-08-23 06:38:00,
2013-08-23 01:43:00,74.2,73.3,29.97,North,5,0.0,0.0,97,0.00,,,0.00,Wunderground v.1.15,2013-08-23 06:43:00,
2013-08-23 01:49:00,74.2,73.3,29.96,North,5,0.0,0.0,97,0.00,,,0.00,Wunderground v.1.15,2013-08-23 06:49:00,
2013-08-23 01:58:00,74.2,73.6,29.96,North,5,0.0,0.0,98,0.00,,,0.00,Wunderground v.1.15,2013-08-23 06:58:00,
2013-08-23 02:08:00,74.2,73.6,29.96,North,5,0.0,0.0,98,0.00,,,0.00,Wunderground v.1.15,2013-08-23 07:08:00,
2013-08-23 02:13:00,74.2,73.6,29.97,SSW,213,0.0,0.0,98,0.00,,,0.00,Wunderground v.1.15,2013-08-23 07:13:00,
2013-08-23 02:18:00,74.2,73.6,29.96,SSW,213,0.0,0.0,98,0.00,,,0.00,Wunderground v.1.15,2013-08-23 07:18:00,
2013-08-23 02:23:00,74.2,73.6,29.96,SSW,213,0.0,0.0,98,0.19,,,0.02,Wunderground v.1.15,2013-08-23 07:23:00,
2013-08-23 02:28:00,74.0,73.1,29.96,SSW,213,0.0,0.0,97,0.12,,,0.02,Wunderground v.1.15,2013-08-23 07:28:00,
2013-08-23 02:33:00,73.7,72.8,29.95,SSW,213,0.0,0.0,97,0.10,,,0.03,Wunderground v.1.15,2013-08-23 07:33:00,
2013-08-23 02:43:00,73.5,72.6,29.95,SSW,213,0.0,0.0,97,0.04,,,0.03,Wunderground v.1.15,2013-08-23 07:43:00,
2013-08-23 02:48:00,73.4,72.5,29.95,SSW,213,0.0,0.0,97,0.00,,,0.03,Wunderground v.1.15,2013-08-23 07:48:00,
2013-08-23 02:53:00,73.3,72.4,29.94,SSW,213,0.0,0.0,97,0.00,,,0.03,Wunderground v.1.15,2013-08-23 07:53:00,
2013-08-23 02:58:00,73.2,72.3,29.94,SSW,213,0.0,0.0,97,0.00,,,0.03,Wunderground v.1.15,2013-08-23 07:58:00,
2013-08-23 03:08:00,73.0,72.1,29.94,SSW,213,0.0,0.0,97,0.00,,,0.03,Wunderground v.1.15,2013-08-23 08:08:00,
2013-08-23 03:13:00,72.9,72.0,29.94,SSW,213,0.0,0.0,97,0.00,,,0.03,Wunderground v.1.15,2013-08-23 08:13:00,
2013-08-23 03:18:00,72.9,72.0,29.94,SSW,213,0.0,0.0,97,0.00,,,0.03,Wunderground v.1.15,2013-08-23 08:18:00,
2013-08-23 03:28:00,72.8,71.9,29.94,SSW,213,0.0,0.0,97,0.00,,,0.03,Wunderground v.1.15,2013-08-23 08:28:00,
2013-08-23 03:33:00,72.8,71.9,29.94,SSW,213,0.0,0.0,97,0.00,,,0.03,Wunderground v.1.15,2013-08-23 08:33:00,
2013-08-23 03:38:00,72.9,72.0,29.94,SSW,213,0.0,0.0,97,0.00,,,0.03,Wunderground v.1.15,2013-08-23 08:38:00,
2013-08-23 03:43:00,72.9,72.3,29.94,SSW,213,0.0,0.0,98,0.00,,,0.03,Wunderground v.1.15,2013-08-23 08:43:00,
2013-08-23 03:48:00,72.9,72.3,29.94,SSW,213,0.0,0.0,98,0.00,,,0.03,Wunderground v.1.15,2013-08-23 08:48:00,
2013-08-23 03:58:00,72.9,72.3,29.94,SSW,213,0.0,0.0,98,0.00,,,0.03,Wunderground v.1.15,2013-08-23 08:58:00,
2013-08-23 04:08:00,72.9,72.3,29.94,SSW,213,0.0,0.0,98,0.00,,,0.03,Wunderground v.1.15,2013-08-23 09:08:00,
2013-08-23 04:14:00,72.9,72.3,29.94,SSW,213,0.0,0.0,98,0.00,,,0.03,Wunderground v.1.15,2013-08-23 09:14:00,
2013-08-23 04:23:00,72.9,72.3,29.94,SSW,213,0.0,0.0,98,0.00,,,0.03,Wunderground v.1.15,2013-08-23 09:23:00,
2013-08-23 04:28:00,72.9,72.3,29.93,SSW,213,0.0,0.0,98,0.00,,,0.03,Wunderground v.1.15,2013-08-23 09:28:00,
2013-08-23 04:33:00,72.9,72.3,29.94,SSW,213,0.0,0.0,98,0.00,,,0.03,Wunderground v.1.15,2013-08-23 09:33:00,
2013-08-23 04:39:00,72.9,72.3,29.94,SSW,213,0.0,0.0,98,0.00,,,0.03,Wunderground v.1.15,2013-08-23 09:39:00,
2013-08-23 04:48:00,72.9,72.3,29.94,North,355,0.0,0.0,98,0.00,,,0.03,Wunderground v.1.15,2013-08-23 09:48:00,
2013-08-23 04:53:00,73.0,72.4,29.94,North,355,0.0,0.0,98,0.00,,,0.03,Wunderground v.1.15,2013-08-23 09:53:00,
2013-08-23 04:58:00,72.9,72.3,29.94,North,355,0.0,0.0,98,0.00,,,0.03,Wunderground v.1.15,2013-08-23 09:58:00,
2013-08-23 05:08:00,72.9,72.3,29.94,North,355,0.0,0.0,98,0.00,,,0.03,Wunderground v.1.15,2013-08-23 10:08:00,
2013-08-23 05:13:00,72.9,72.3,29.95,North,355,0.0,0.0,98,0.00,,,0.03,Wunderground v.1.15,2013-08-23 10:13:00,
2013-08-23 05:18:00,72.9,72.3,29.95,North,355,0.0,0.0,98,0.00,,,0.03,Wunderground v.1.15,2013-08-23 10:18:00,
2013-08-23 05:23:00,72.9,72.3,29.95,North,355,0.0,0.0,98,0.00,,,0.03,Wunderground v.1.15,2013-08-23 10:23:00,
2013-08-23 05:29:00,72.9,72.3,29.95,North,355,0.0,0.0,98,0.00,,,0.03,Wunderground v.1.15,2013-08-23 10:29:00,
2013-08-23 05:38:00,72.8,72.2,29.94,North,355,0.0,0.0,98,0.00,,,0.03,Wunderground v.1.15,2013-08-23 10:38:00,
2013-08-23 05:43:00,72.8,72.2,29.94,North,355,0.0,0.0,98,0.00,,,0.03,Wunderground v.1.15,2013-08-23 10:43:00,
2013-08-23 05:48:00,72.8,72.2,29.94,North,355,0.0,0.0,98,0.00,,,0.03,Wunderground v.1.15,2013-08-23 10:48:00,
2013-08-23 05:54:00,72.7,72.1,29.94,North,355,0.0,0.0,98,0.00,,,0.03,Wunderground v.1.15,2013-08-23 10:54:00,
2013-08-23 05:59:00,72.7,72.1,29.94,North,355,0.0,0.0,98,0.00,,,0.03,Wunderground v.1.15,2013-08-23 10:59:00,
2013-08-23 06:08:00,72.6,72.0,29.94,North,355,0.0,0.0,98,0.00,,,0.03,Wunderground v.1.15,2013-08-23 11:08:00,
2013-08-23 06:13:00,72.6,72.0,29.94,NNW,345,0.0,0.0,98,0.00,,,0.03,Wunderground v.1.15,2013-08-23 11:13:00,
2013-08-23 06:23:00,72.5,71.9,29.95,North,360,0.0,0.0,98,0.00,,,0.03,Wunderground v.1.15,2013-08-23 11:23:00,
2013-08-23 06:28:00,72.5,71.9,29.95,North,360,0.0,0.0,98,0.00,,,0.03,Wunderground v.1.15,2013-08-23 11:28:00,
2013-08-23 06:33:00,72.4,71.8,29.95,North,360,0.0,0.0,98,0.00,,,0.03,Wunderground v.1.15,2013-08-23 11:33:00,
2013-08-23 06:38:00,72.4,71.8,29.95,North,360,0.0,0.0,98,0.00,,,0.03,Wunderground v.1.15,2013-08-23 11:38:00,
2013-08-23 06:43:00,72.4,71.8,29.95,North,360,0.0,0.0,98,0.00,,,0.03,Wunderground v.1.15,2013-08-23 11:43:00,
2013-08-23 06:53:00,72.4,71.8,29.96,North,360,0.0,0.0,98,0.00,,,0.03,Wunderground v.1.15,2013-08-23 11:53:00,
2013-08-23 06:58:00,72.4,71.8,29.96,North,360,0.0,0.0,98,0.00,,,0.03,Wunderground v.1.15,2013-08-23 11:58:00,
2013-08-23 07:08:00,72.5,71.9,29.96,North,360,0.0,0.0,98,0.00,,,0.03,Wunderground v.1.15,2013-08-23 12:08:00,
2013-08-23 07:13:00,72.5,71.9,29.96,North,360,0.0,0.0,98,0.00,,,0.03,Wunderground v.1.15,2013-08-23 12:13:00,
2013-08-23 07:18:00,72.6,72.0,29.96,North,360,0.0,0.0,98,0.00,,,0.03,Wunderground v.1.15,2013-08-23 12:18:00,
2013-08-23 07:23:00,72.6,72.0,29.96,North,360,0.0,0.0,98,0.00,,,0.03,Wunderground v.1.15,2013-08-23 12:23:00,
2013-08-23 07:28:00,72.7,72.1,29.96,North,360,0.0,0.0,98,0.00,,,0.03,Wunderground v.1.15,2013-08-23 12:28:00,
2013-08-23 07:34:00,72.8,72.2,29.96,North,360,0.0,0.0,98,0.00,,,0.03,Wunderground v.1.15,2013-08-23 12:34:00,
2013-08-23 07:43:00,73.1,72.5,29.97,North,360,0.0,0.0,98,0.00,,,0.03,Wunderground v.1.15,2013-08-23 12:43:00,
2013-08-23 07:48:00,73.2,72.6,29.97,North,360,0.0,0.0,98,0.00,,,0.03,Wunderground v.1.15,2013-08-23 12:48:00,
2013-08-23 07:53:00,73.3,72.7,29.97,North,360,0.0,0.0,98,0.00,,,0.03,Wunderground v.1.15,2013-08-23 12:53:00,
2013-08-23 07:58:00,73.4,72.8,29.97,North,360,0.0,0.0,98,0.00,,,0.03,Wunderground v.1.15,2013-08-23 12:58:00,
2013-08-23 08:08:00,73.8,73.2,29.97,North,360,0.0,0.0,98,0.00,,,0.03,Wunderground v.1.15,2013-08-23 13:08:00,
2013-08-23 08:13:00,74.0,73.4,29.98,North,360,0.0,0.0,98,0.00,,,0.03,Wunderground v.1.15,2013-08-23 13:13:00,
2013-08-23 08:18:00,74.2,73.6,29.98,North,360,0.0,0.0,98,0.00,,,0.03,Wunderground v.1.15,2013-08-23 13:18:00,
2013-08-23 08:23:00,74.3,73.7,29.98,North,360,0.0,0.0,98,0.00,,,0.03,Wunderground v.1.15,2013-08-23 13:23:00,
2013-08-23 08:33:00,74.4,73.8,29.98,North,360,0.0,0.0,98,0.00,,,0.03,Wunderground v.1.15,2013-08-23 13:33:00,
2013-08-23 08:38:00,74.5,73.9,29.99,North,360,0.0,0.0,98,0.00,,,0.03,Wunderground v.1.15,2013-08-23 13:38:00,
2013-08-23 08:43:00,74.6,74.0,29.99,North,360,0.0,0.0,98,0.00,,,0.03,Wunderground v.1.15,2013-08-23 13:43:00,
2013-08-23 08:48:00,74.7,74.1,29.99,North,360,0.0,0.0,98,0.00,,,0.03,Wunderground v.1.15,2013-08-23 13:48:00,
2013-08-23 08:58:00,74.9,74.3,29.99,North,360,0.0,0.0,98,0.00,,,0.03,Wunderground v.1.15,2013-08-23 13:58:00,
2013-08-23 09:08:00,75.3,74.7,30.00,North,360,0.0,0.0,98,0.00,,,0.03,Wunderground v.1.15,2013-08-23 14:08:00,
2013-08-23 09:18:00,75.5,74.9,30.00,North,360,0.0,0.0,98,0.00,,,0.03,Wunderground v.1.15,2013-08-23 14:18:00,
2013-08-23 09:23:00,75.7,75.1,29.99,North,360,0.0,0.0,98,0.00,,,0.03,Wunderground v.1.15,2013-08-23 14:23:00,
2013-08-23 09:28:00,75.8,74.9,29.99,North,5,0.0,0.0,97,0.00,,,0.03,Wunderground v.1.15,2013-08-23 14:28:00,
2013-08-23 09:33:00,75.8,74.9,29.99,WSW,254,1.0,1.0,97,0.00,,,0.03,Wunderground v.1.15,2013-08-23 14:33:00,
2013-08-23 09:38:00,75.9,75.0,29.99,WSW,254,0.0,0.0,97,0.00,,,0.03,Wunderground v.1.15,2013-08-23 14:38:00,
2013-08-23 09:48:00,76.2,75.0,30.00,WSW,254,0.0,0.0,96,0.00,,,0.03,Wunderground v.1.15,2013-08-23 14:48:00,
2013-08-23 09:53:00,76.2,75.0,30.00,WSW,254,0.0,0.0,96,0.00,,,0.03,Wunderground v.1.15,2013-08-23 14:53:00,
2013-08-23 09:58:00,76.2,75.0,30.00,WSW,254,0.0,0.0,96,0.00,,,0.03,Wunderground v.1.15,2013-08-23 14:58:00,
2013-08-23 10:08:00,76.2,75.0,30.00,North,11,0.0,0.0,96,0.00,,,0.03,Wunderground v.1.15,2013-08-23 15:08:00,
2013-08-23 10:13:00,76.3,75.1,30.00,North,11,0.0,0.0,96,0.00,,,0.03,Wunderground v.1.15,2013-08-23 15:13:00,
2013-08-23 10:18:00,76.5,75.3,30.00,North,11,0.0,0.0,96,0.00,,,0.03,Wunderground v.1.15,2013-08-23 15:18:00,
2013-08-23 10:23:00,76.5,75.0,30.00,North,11,0.0,0.0,95,0.00,,,0.03,Wunderground v.1.15,2013-08-23 15:23:00,
2013-08-23 10:29:00,76.4,74.9,29.99,WSW,244,0.0,0.0,95,0.00,,,0.03,Wunderground v.1.15,2013-08-23 15:29:00,
2013-08-23 10:38:00,76.3,74.4,29.99,NNE,12,0.0,2.0,94,0.00,,,0.03,Wunderground v.1.15,2013-08-23 15:38:00,
2013-08-23 10:43:00,76.3,74.8,29.99,NNE,12,0.0,2.0,95,0.00,,,0.03,Wunderground v.1.15,2013-08-23 15:43:00,
2013-08-23 10:48:00,76.4,74.9,30.00,WNW,300,0.0,0.0,95,0.00,,,0.03,Wunderground v.1.15,2013-08-23 15:48:00,
2013-08-23 10:53:00,76.5,75.0,30.00,WNW,300,0.0,0.0,95,0.00,,,0.03,Wunderground v.1.15,2013-08-23 15:53:00,
2013-08-23 10:59:00,76.5,75.0,30.00,NNW,346,0.0,0.0,95,0.00,,,0.03,Wunderground v.1.15,2013-08-23 15:59:00,
2013-08-23 11:08:00,76.6,75.1,30.00,NNW,346,0.0,0.0,95,0.00,,,0.03,Wunderground v.1.15,2013-08-23 16:08:00,
2013-08-23 11:13:00,76.5,75.0,30.00,NW,320,0.0,0.0,95,0.00,,,0.03,Wunderground v.1.15,2013-08-23 16:13:00,
2013-08-23 11:23:00,76.5,74.6,30.00,NW,320,0.0,0.0,94,0.00,,,0.03,Wunderground v.1.15,2013-08-23 16:23:00,
2013-08-23 11:28:00,76.6,74.7,30.00,NW,320,0.0,0.0,94,0.00,,,0.03,Wunderground v.1.15,2013-08-23 16:28:00,
2013-08-23 11:33:00,76.6,74.4,30.00,NW,320,0.0,0.0,93,0.00,,,0.03,Wunderground v.1.15,2013-08-23 16:33:00,
2013-08-23 11:38:00,76.7,74.8,29.99,NW,320,0.0,0.0,94,0.00,,,0.03,Wunderground v.1.15,2013-08-23 16:38:00,
2013-08-23 11:43:00,76.7,74.5,29.99,NW,320,0.0,0.0,93,0.00,,,0.03,Wunderground v.1.15,2013-08-23 16:43:00,
2013-08-23 11:53:00,77.0,74.8,29.99,North,350,0.0,0.0,93,0.00,,,0.03,Wunderground v.1.15,2013-08-23 16:53:00,
2013-08-23 11:58:00,77.2,75.0,29.99,NNE,13,0.0,0.0,93,0.00,,,0.03,Wunderground v.1.15,2013-08-23 16:58:00,
2013-08-23 12:09:00,77.6,75.1,29.99,NNE,13,0.0,0.0,92,0.00,,,0.03,Wunderground v.1.15,2013-08-23 17:09:00,
2013-08-23 12:18:00,77.9,75.1,29.99,NNE,13,0.0,0.0,91,0.00,,,0.03,Wunderground v.1.15,2013-08-23 17:18:00,
2013-08-23 12:23:00,77.8,74.3,29.99,North,10,0.0,0.0,89,0.00,,,0.03,Wunderground v.1.15,2013-08-23 17:23:00,
2013-08-23 12:28:00,77.8,74.6,29.98,North,10,0.0,0.0,90,0.00,,,0.03,Wunderground v.1.15,2013-08-23 17:28:00,
2013-08-23 12:33:00,77.8,74.6,29.98,North,10,0.0,0.0,90,0.00,,,0.03,Wunderground v.1.15,2013-08-23 17:33:00,
2013-08-23 12:39:00,78.0,74.8,29.98,North,10,0.0,0.0,90,0.00,,,0.03,Wunderground v.1.15,2013-08-23 17:39:00,
2013-08-23 12:48:00,78.1,74.3,29.98,North,11,0.0,0.0,88,0.00,,,0.03,Wunderground v.1.15,2013-08-23 17:48:00,
2013-08-23 12:53:00,78.1,74.6,29.98,North,11,0.0,0.0,89,0.00,,,0.03,Wunderground v.1.15,2013-08-23 17:53:00,
2013-08-23 12:58:00,78.1,74.9,29.98,North,11,0.0,0.0,90,0.00,,,0.03,Wunderground v.1.15,2013-08-23 17:58:00,
2013-08-23 13:08:00,78.3,75.1,29.98,North,11,0.0,0.0,90,0.00,,,0.03,Wunderground v.1.15,2013-08-23 18:08:00,
2013-08-23 13:13:00,78.4,75.2,29.97,North,11,0.0,0.0,90,0.00,,,0.03,Wunderground v.1.15,2013-08-23 18:13:00,
2013-08-23 13:18:00,78.5,75.0,29.97,North,11,0.0,0.0,89,0.00,,,0.03,Wunderground v.1.15,2013-08-23 18:18:00,
2013-08-23 13:23:00,78.7,75.2,29.97,North,11,0.0,0.0,89,0.00,,,0.03,Wunderground v.1.15,2013-08-23 18:23:00,
2013-08-23 13:33:00,79.2,75.7,29.97,North,11,0.0,0.0,89,0.00,,,0.03,Wunderground v.1.15,2013-08-23 18:33:00,
2013-08-23 13:38:00,79.4,75.2,29.96,North,11,0.0,0.0,87,0.00,,,0.03,Wunderground v.1.15,2013-08-23 18:38:00,
2013-08-23 13:43:00,79.6,75.7,29.96,North,11,0.0,0.0,88,0.00,,,0.03,Wunderground v.1.15,2013-08-23 18:43:00,
2013-08-23 13:48:00,79.8,75.9,29.96,North,11,0.0,0.0,88,0.00,,,0.03,Wunderground v.1.15,2013-08-23 18:48:00,
2013-08-23 13:53:00,80.1,75.9,29.96,NW,308,0.0,0.0,87,0.00,,,0.03,Wunderground v.1.15,2013-08-23 18:53:00,
2013-08-23 14:08:00,80.8,76.2,29.96,NW,306,0.0,0.0,86,0.00,,,0.03,Wunderground v.1.15,2013-08-23 19:08:00,
2013-08-23 14:18:00,81.3,76.7,29.96,NW,306,0.0,0.0,86,0.00,,,0.03,Wunderground v.1.15,2013-08-23 19:18:00,
2013-08-23 14:23:00,81.4,76.8,29.96,NW,309,0.0,0.0,86,0.00,,,0.03,Wunderground v.1.15,2013-08-23 19:23:00,
2013-08-23 14:28:00,81.6,77.4,29.96,NW,309,0.0,0.0,87,0.00,,,0.03,Wunderground v.1.15,2013-08-23 19:28:00,
2013-08-23 14:33:00,81.8,77.5,29.96,NW,309,0.0,0.0,87,0.00,,,0.03,Wunderground v.1.15,2013-08-23 19:33:00,
2013-08-23 14:38:00,82.0,78.1,29.96,NW,309,0.0,0.0,88,0.00,,,0.03,Wunderground v.1.15,2013-08-23 19:38:00,
2013-08-23 14:48:00,82.0,76.7,29.96,NNE,18,1.0,2.0,84,0.00,,,0.03,Wunderground v.1.15,2013-08-23 19:48:00,
2013-08-23 14:53:00,82.0,77.0,29.96,NNE,18,1.0,2.0,85,0.00,,,0.03,Wunderground v.1.15,2013-08-23 19:53:00,
2013-08-23 14:58:00,82.0,77.7,29.96,NNE,18,0.0,0.0,87,0.00,,,0.03,Wunderground v.1.15,2013-08-23 19:58:00,
2013-08-23 15:08:00,82.2,77.9,29.96,NNE,18,0.0,0.0,87,0.00,,,0.03,Wunderground v.1.15,2013-08-23 20:08:00,
2013-08-23 15:13:00,82.2,77.6,29.96,NNE,18,0.0,0.0,86,0.00,,,0.03,Wunderground v.1.15,2013-08-23 20:13:00,
2013-08-23 15:18:00,82.2,77.6,29.96,NNE,18,0.0,0.0,86,0.00,,,0.03,Wunderground v.1.15,2013-08-23 20:18:00,
2013-08-23 15:23:00,82.2,77.6,29.96,NNE,18,0.0,0.0,86,0.00,,,0.03,Wunderground v.1.15,2013-08-23 20:23:00,
2013-08-23 15:29:00,82.3,77.7,29.96,NNE,18,0.0,0.0,86,0.00,,,0.03,Wunderground v.1.15,2013-08-23 20:29:00,
2013-08-23 15:38:00,82.4,77.8,29.95,NNE,18,0.0,0.0,86,0.00,,,0.03,Wunderground v.1.15,2013-08-23 20:38:00,
2013-08-23 15:43:00,82.4,77.8,29.95,NNE,18,0.0,0.0,86,0.00,,,0.03,Wunderground v.1.15,2013-08-23 20:43:00,
2013-08-23 15:48:00,82.3,77.3,29.95,SW,227,0.0,0.0,85,0.00,,,0.03,Wunderground v.1.15,2013-08-23 20:48:00,
2013-08-23 15:53:00,82.2,77.2,29.94,NNE,15,0.0,0.0,85,0.00,,,0.03,Wunderground v.1.15,2013-08-23 20:53:00,
2013-08-23 15:59:00,82.2,77.6,29.94,NNE,15,0.0,0.0,86,0.00,,,0.03,Wunderground v.1.15,2013-08-23 20:59:00,
2013-08-23 16:08:00,82.1,77.5,29.94,NNE,15,0.0,0.0,86,0.00,,,0.03,Wunderground v.1.15,2013-08-23 21:08:00,
2013-08-23 16:13:00,82.1,77.5,29.94,NNE,14,0.0,0.0,86,0.00,,,0.03,Wunderground v.1.15,2013-08-23 21:13:00,
2013-08-23 16:18:00,82.2,77.9,29.94,NNE,15,0.0,0.0,87,0.00,,,0.03,Wunderground v.1.15,2013-08-23 21:18:00,
2013-08-23 16:28:00,82.2,77.9,29.93,NNE,15,0.0,0.0,87,0.00,,,0.03,Wunderground v.1.15,2013-08-23 21:28:00,
2013-08-23 16:33:00,82.2,77.9,29.94,NE,49,0.0,0.0,87,0.00,,,0.03,Wunderground v.1.15,2013-08-23 21:33:00,
2013-08-23 16:38:00,82.1,77.5,29.93,NE,49,0.0,0.0,86,0.00,,,0.03,Wunderground v.1.15,2013-08-23 21:38:00,
2013-08-23 16:43:00,82.0,77.0,29.94,ESE,113,0.0,0.0,85,0.00,,,0.03,Wunderground v.1.15,2013-08-23 21:43:00,
2013-08-23 16:48:00,81.5,76.6,29.94,ESE,109,0.0,0.0,85,0.00,,,0.04,Wunderground v.1.15,2013-08-23 21:48:00,
2013-08-23 16:58:00,80.0,75.4,29.94,NNE,12,0.0,0.0,86,0.00,,,0.04,Wunderground v.1.15,2013-08-23 21:58:00,
2013-08-23 17:08:00,78.8,74.6,29.93,NNE,12,0.0,0.0,87,0.00,,,0.04,Wunderground v.1.15,2013-08-23 22:08:00,
2013-08-23 17:13:00,78.5,74.3,29.93,NNE,12,0.0,0.0,87,0.00,,,0.04,Wunderground v.1.15,2013-08-23 22:13:00,
2013-08-23 17:18:00,78.1,74.3,29.93,NNE,12,0.0,0.0,88,0.00,,,0.04,Wunderground v.1.15,2013-08-23 22:18:00,
2013-08-23 17:23:00,77.9,74.4,29.93,NNE,12,0.0,0.0,89,0.00,,,0.04,Wunderground v.1.15,2013-08-23 22:23:00,
2013-08-23 17:28:00,77.8,74.3,29.93,NNE,12,0.0,0.0,89,0.00,,,0.04,Wunderground v.1.15,2013-08-23 22:28:00,
2013-08-23 17:34:00,77.6,74.4,29.93,NNE,12,0.0,0.0,90,0.00,,,0.04,Wunderground v.1.15,2013-08-23 22:34:00,
2013-08-23 17:43:00,77.4,74.6,29.93,NNE,12,0.0,0.0,91,0.00,,,0.04,Wunderground v.1.15,2013-08-23 22:43:00,
2013-08-23 17:48:00,77.3,74.5,29.93,NNE,12,0.0,0.0,91,0.00,,,0.04,Wunderground v.1.15,2013-08-23 22:48:00,
2013-08-23 17:53:00,77.3,74.5,29.93,NNE,12,0.0,0.0,91,0.00,,,0.04,Wunderground v.1.15,2013-08-23 22:53:00,
2013-08-23 17:58:00,77.3,74.5,29.92,NNE,12,0.0,0.0,91,0.00,,,0.04,Wunderground v.1.15,2013-08-23 22:58:00,
2013-08-23 18:08:00,77.3,74.8,29.92,NNE,12,0.0,0.0,92,0.00,,,0.04,Wunderground v.1.15,2013-08-23 23:08:00,
2013-08-23 18:13:00,77.3,74.8,29.92,NNE,12,0.0,0.0,92,0.00,,,0.04,Wunderground v.1.15,2013-08-23 23:13:00,
2013-08-23 18:18:00,77.3,74.8,29.92,NNE,12,0.0,0.0,92,0.00,,,0.04,Wunderground v.1.15,2013-08-23 23:18:00,
2013-08-23 18:28:00,77.2,74.4,29.91,NNE,12,0.0,0.0,91,0.00,,,0.04,Wunderground v.1.15,2013-08-23 23:28:00,
2013-08-23 18:33:00,77.2,74.4,29.91,NNE,12,0.0,0.0,91,0.00,,,0.04,Wunderground v.1.15,2013-08-23 23:33:00,
2013-08-23 18:38:00,77.1,74.3,29.91,NNE,12,0.0,0.0,91,0.00,,,0.04,Wunderground v.1.15,2013-08-23 23:38:00,
2013-08-23 18:43:00,77.1,74.3,29.91,NNE,12,0.0,0.0,91,0.00,,,0.04,Wunderground v.1.15,2013-08-23 23:43:00,
2013-08-23 18:48:00,77.1,74.3,29.91,NNE,12,0.0,0.0,91,0.00,,,0.04,Wunderground v.1.15,2013-08-23 23:48:00,
2013-08-23 18:58:00,77.0,74.2,29.92,NNE,12,0.0,0.0,91,0.00,,,0.04,Wunderground v.1.15,2013-08-23 23:58:00,
2013-08-23 19:08:00,76.8,74.0,29.92,NNE,12,0.0,0.0,91,0.00,,,0.04,Wunderground v.1.15,2013-08-24 00:08:00,
2013-08-23 19:13:00,76.7,74.2,29.91,NNE,12,0.0,0.0,92,0.00,,,0.04,Wunderground v.1.15,2013-08-24 00:13:00,
2013-08-23 19:18:00,76.6,74.1,29.91,NNE,12,0.0,0.0,92,0.00,,,0.04,Wunderground v.1.15,2013-08-24 00:18:00,
2013-08-23 19:23:00,76.6,74.1,29.91,NNE,12,0.0,0.0,92,0.00,,,0.04,Wunderground v.1.15,2013-08-24 00:23:00,
2013-08-23 19:28:00,76.4,73.9,29.92,NNE,12,0.0,0.0,92,0.00,,,0.04,Wunderground v.1.15,2013-08-24 00:28:00,
2013-08-23 19:33:00,76.3,73.8,29.92,NNE,12,0.0,0.0,92,0.00,,,0.04,Wunderground v.1.15,2013-08-24 00:33:00,
2013-08-23 19:43:00,76.1,73.9,29.92,NNE,12,0.0,0.0,93,0.00,,,0.04,Wunderground v.1.15,2013-08-24 00:43:00,
2013-08-23 19:48:00,76.0,73.8,29.93,NNE,12,0.0,0.0,93,0.00,,,0.04,Wunderground v.1.15,2013-08-24 00:48:00,
2013-08-23 19:53:00,75.9,73.7,29.93,NNE,12,0.0,0.0,93,0.00,,,0.04,Wunderground v.1.15,2013-08-24 00:53:00,
2013-08-23 19:58:00,75.8,73.6,29.94,NNE,12,0.0,0.0,93,0.00,,,0.04,Wunderground v.1.15,2013-08-24 00:58:00,
2013-08-23 20:08:00,75.6,73.8,29.94,NNE,12,0.0,0.0,94,0.00,,,0.04,Wunderground v.1.15,2013-08-24 01:08:00,
2013-08-23 20:13:00,75.4,73.6,29.94,NNE,12,0.0,0.0,94,0.00,,,0.04,Wunderground v.1.15,2013-08-24 01:13:00,
2013-08-23 20:18:00,75.3,73.5,29.94,NNE,12,0.0,0.0,94,0.00,,,0.04,Wunderground v.1.15,2013-08-24 01:18:00,
2013-08-23 20:28:00,75.0,73.2,29.94,NNE,12,0.0,0.0,94,0.00,,,0.04,Wunderground v.1.15,2013-08-24 01:28:00,
2013-08-23 20:33:00,74.9,73.1,29.94,NNE,12,0.0,0.0,94,0.00,,,0.04,Wunderground v.1.15,2013-08-24 01:33:00,
2013-08-23 20:38:00,74.8,73.0,29.95,NNE,12,0.0,0.0,94,0.00,,,0.04,Wunderground v.1.15,2013-08-24 01:38:00,
2013-08-23 20:43:00,74.7,72.9,29.95,NNE,12,0.0,0.0,94,0.00,,,0.04,Wunderground v.1.15,2013-08-24 01:43:00,
2013-08-23 20:48:00,74.6,72.8,29.95,NNE,12,0.0,0.0,94,0.00,,,0.04,Wunderground v.1.15,2013-08-24 01:48:00,
2013-08-23 20:58:00,74.6,73.1,29.95,NNE,12,0.0,0.0,95,0.00,,,0.04,Wunderground v.1.15,2013-08-24 01:58:00,
2013-08-23 21:08:00,74.5,73.0,29.96,NNE,12,0.0,0.0,95,0.00,,,0.04,Wunderground v.1.15,2013-08-24 02:08:00,
2013-08-23 21:14:00,74.4,72.9,29.96,NNE,12,0.0,0.0,95,0.00,,,0.04,Wunderground v.1.15,2013-08-24 02:14:00,
2013-08-23 21:23:00,74.3,72.8,29.96,NNE,12,0.0,0.0,95,0.00,,,0.04,Wunderground v.1.15,2013-08-24 02:23:00,
2013-08-23 21:28:00,74.2,72.7,29.97,NNE,12,0.0,0.0,95,0.00,,,0.04,Wunderground v.1.15,2013-08-24 02:28:00,
2013-08-23 21:33:00,74.2,72.7,29.97,NNE,12,0.0,0.0,95,0.00,,,0.04,Wunderground v.1.15,2013-08-24 02:33:00,
2013-08-23 21:38:00,74.2,72.7,29.97,NNE,12,0.0,0.0,95,0.00,,,0.04,Wunderground v.1.15,2013-08-24 02:38:00,
2013-08-23 21:44:00,74.2,72.7,29.97,NNE,12,0.0,0.0,95,0.00,,,0.04,Wunderground v.1.15,2013-08-24 02:44:00,
2013-08-23 21:53:00,74.1,72.6,29.98,NNE,12,0.0,0.0,95,0.00,,,0.04,Wunderground v.1.15,2013-08-24 02:53:00,
2013-08-23 21:58:00,74.0,72.5,29.98,NNE,12,0.0,0.0,95,0.00,,,0.04,Wunderground v.1.15,2013-08-24 02:58:00,
2013-08-23 22:08:00,73.8,72.3,29.98,NNE,12,0.0,0.0,95,0.00,,,0.04,Wunderground v.1.15,2013-08-24 03:08:00,
2013-08-23 22:13:00,73.7,72.2,29.98,NNE,12,0.0,0.0,95,0.00,,,0.04,Wunderground v.1.15,2013-08-24 03:13:00,
2013-08-23 22:18:00,73.6,72.4,29.98,NNE,12,0.0,0.0,96,0.00,,,0.04,Wunderground v.1.15,2013-08-24 03:18:00,
2013-08-23 22:23:00,73.6,72.4,29.98,NNE,12,0.0,0.0,96,0.00,,,0.04,Wunderground v.1.15,2013-08-24 03:23:00,
2013-08-23 22:33:00,73.6,72.4,29.99,NNE,12,0.0,0.0,96,0.00,,,0.04,Wunderground v.1.15,2013-08-24 03:33:00,
2013-08-23 22:38:00,73.6,72.4,29.99,NNE,12,0.0,0.0,96,0.00,,,0.04,Wunderground v.1.15,2013-08-24 03:38:00,
2013-08-23 22:43:00,73.6,72.4,29.99,NNE,12,0.0,0.0,96,0.00,,,0.04,Wunderground v.1.15,2013-08-24 03:43:00,
2013-08-23 22:48:00,73.6,72.4,29.99,NNE,12,0.0,0.0,96,0.00,,,0.04,Wunderground v.1.15,2013-08-24 03:48:00,
2013-08-23 22:53:00,73.6,72.4,30.00,NNE,12,0.0,0.0,96,0.00,,,0.04,Wunderground v.1.15,2013-08-24 03:53:00,
2013-08-23 23:08:00,73.6,72.4,29.99,NNE,12,0.0,0.0,96,0.00,,,0.04,Wunderground v.1.15,2013-08-24 04:08:00,
2013-08-23 23:13:00,73.6,72.4,29.99,NNE,12,0.0,0.0,96,0.00,,,0.04,Wunderground v.1.15,2013-08-24 04:13:00,
2013-08-23 23:18:00,73.5,72.3,29.99,NNE,12,0.0,0.0,96,0.00,,,0.04,Wunderground v.1.15,2013-08-24 04:18:00,
2013-08-23 23:23:00,73.6,72.4,29.99,NNE,12,0.0,0.0,96,0.00,,,0.04,Wunderground v.1.15,2013-08-24 04:23:00,
2013-08-23 23:28:00,73.7,72.8,29.99,NNE,12,0.0,0.0,97,0.00,,,0.04,Wunderground v.1.15,2013-08-24 04:28:00,
2013-08-23 23:33:00,73.8,72.9,29.99,NNE,12,0.0,0.0,97,0.00,,,0.04,Wunderground v.1.15,2013-08-24 04:33:00,
2013-08-23 23:39:00,73.9,73.0,30.00,NNE,12,0.0,0.0,97,0.00,,,0.04,Wunderground v.1.15,2013-08-24 04:39:00,
2013-08-23 23:43:00,73.9,73.0,30.00,NNE,12,0.0,0.0,97,0.00,,,0.04,Wunderground v.1.15,2013-08-24 04:43:00,
2013-08-23 23:48:00,73.9,73.0,29.99,NNE,12,0.0,0.0,97,0.00,,,0.04,Wunderground v.1.15,2013-08-24 04:48:00,
2013-08-23 23:53:00,73.9,72.7,30.00,NNE,12,0.0,0.0,96,0.00,,,0.04,Wunderground v.1.15,2013-08-24 04:53:00,
2013-08-23 23:58:00,73.9,72.7,29.99,NNE,12,0.0,0.0,96,0.00,,,0.04,Wunderground v.1.15,2013-08-24 04:58:00,